sensor_id;sensor_type;location;lat;lon;timestamp;P1;durP1;ratioP1;P2;durP2;ratioP2
19623;SDS011;9959;49.798;9.928;2022-12-07T00:01:05;24.23;;;11.48;;
19623;SDS011;9959;49.798;9.928;2022-12-07T00:03:33;27.02;;;11.60;;
19623;SDS011;9959;49.798;9.928;2022-12-07T00:06:02;28.73;;;11.75;;
19623;SDS011;9959;49.798;9.928;2022-12-07T00:08:31;24.48;;;11.32;;
19623;SDS011;9959;49.798;9.928;2022-12-07T00:11:00;25.35;;;10.57;;
19623;SDS011;9959;49.798;9.928;2022-12-07T00:13:31;23.13;;;11.77;;
19623;SDS011;9959;49.798;9.928;2022-12-07T00:16:00;25.83;;;10.80;;
19623;SDS011;9959;49.798;9.928;2022-12-07T00:18:29;23.27;;;10.90;;
19623;SDS011;9959;49.798;9.928;2022-12-07T00:21:00;22.20;;;9.70;;
19623;SDS011;9959;49.798;9.928;2022-12-07T00:23:29;23.25;;;10.50;;
19623;SDS011;9959;49.798;9.928;2022-12-07T00:26:02;22.13;;;10.40;;
19623;SDS011;9959;49.798;9.928;2022-12-07T00:28:33;21.92;;;10.00;;
19623;SDS011;9959;49.798;9.928;2022-12-07T00:31:05;18.73;;;9.68;;
19623;SDS011;9959;49.798;9.928;2022-12-07T00:33:34;23.80;;;10.13;;
19623;SDS011;9959;49.798;9.928;2022-12-07T00:36:04;23.95;;;11.00;;
19623;SDS011;9959;49.798;9.928;2022-12-07T00:38:35;27.02;;;11.07;;
19623;SDS011;9959;49.798;9.928;2022-12-07T00:41:04;24.73;;;10.68;;
19623;SDS011;9959;49.798;9.928;2022-12-07T00:43:35;24.40;;;11.05;;
19623;SDS011;9959;49.798;9.928;2022-12-07T00:46:03;23.65;;;11.02;;
19623;SDS011;9959;49.798;9.928;2022-12-07T00:48:31;22.38;;;10.73;;
19623;SDS011;9959;49.798;9.928;2022-12-07T00:50:59;22.38;;;10.70;;
19623;SDS011;9959;49.798;9.928;2022-12-07T00:53:28;23.85;;;10.40;;
19623;SDS011;9959;49.798;9.928;2022-12-07T00:56:04;24.13;;;9.98;;
19623;SDS011;9959;49.798;9.928;2022-12-07T00:58:33;22.50;;;10.30;;
19623;SDS011;9959;49.798;9.928;2022-12-07T01:01:03;21.75;;;10.65;;
19623;SDS011;9959;49.798;9.928;2022-12-07T01:03:32;26.05;;;10.77;;
19623;SDS011;9959;49.798;9.928;2022-12-07T01:06:00;20.48;;;10.40;;
19623;SDS011;9959;49.798;9.928;2022-12-07T01:08:28;23.50;;;11.30;;
19623;SDS011;9959;49.798;9.928;2022-12-07T01:10:57;21.23;;;10.40;;
19623;SDS011;9959;49.798;9.928;2022-12-07T01:13:27;22.13;;;10.07;;
19623;SDS011;9959;49.798;9.928;2022-12-07T01:15:56;24.42;;;10.80;;
19623;SDS011;9959;49.798;9.928;2022-12-07T01:18:27;21.83;;;10.68;;
19623;SDS011;9959;49.798;9.928;2022-12-07T01:20:57;22.25;;;10.00;;
19623;SDS011;9959;49.798;9.928;2022-12-07T01:23:26;23.30;;;10.40;;
19623;SDS011;9959;49.798;9.928;2022-12-07T01:25:54;27.55;;;10.32;;
19623;SDS011;9959;49.798;9.928;2022-12-07T01:28:23;21.83;;;9.70;;
19623;SDS011;9959;49.798;9.928;2022-12-07T01:30:55;28.02;;;10.65;;
19623;SDS011;9959;49.798;9.928;2022-12-07T01:33:26;23.10;;;10.48;;
19623;SDS011;9959;49.798;9.928;2022-12-07T01:36:00;23.35;;;10.55;;
19623;SDS011;9959;49.798;9.928;2022-12-07T01:38:29;24.15;;;11.35;;
19623;SDS011;9959;49.798;9.928;2022-12-07T01:40:58;27.98;;;10.43;;
19623;SDS011;9959;49.798;9.928;2022-12-07T01:43:27;24.75;;;10.88;;
19623;SDS011;9959;49.798;9.928;2022-12-07T01:45:56;20.75;;;9.85;;
19623;SDS011;9959;49.798;9.928;2022-12-07T01:48:26;22.52;;;10.48;;
19623;SDS011;9959;49.798;9.928;2022-12-07T01:50:59;25.23;;;10.65;;
19623;SDS011;9959;49.798;9.928;2022-12-07T01:53:30;22.83;;;10.98;;
19623;SDS011;9959;49.798;9.928;2022-12-07T01:56:03;21.02;;;9.75;;
19623;SDS011;9959;49.798;9.928;2022-12-07T01:58:33;21.33;;;10.45;;
19623;SDS011;9959;49.798;9.928;2022-12-07T02:01:01;21.73;;;10.15;;
19623;SDS011;9959;49.798;9.928;2022-12-07T02:03:31;26.00;;;10.25;;
19623;SDS011;9959;49.798;9.928;2022-12-07T02:06:03;27.70;;;11.25;;
19623;SDS011;9959;49.798;9.928;2022-12-07T02:08:32;22.65;;;10.27;;
19623;SDS011;9959;49.798;9.928;2022-12-07T02:11:01;21.55;;;10.50;;
19623;SDS011;9959;49.798;9.928;2022-12-07T02:13:29;24.88;;;10.65;;
19623;SDS011;9959;49.798;9.928;2022-12-07T02:16:05;23.35;;;11.02;;
19623;SDS011;9959;49.798;9.928;2022-12-07T02:18:47;23.20;;;10.68;;
19623;SDS011;9959;49.798;9.928;2022-12-07T02:21:25;24.48;;;10.27;;
19623;SDS011;9959;49.798;9.928;2022-12-07T02:27:17;21.83;;;9.70;;
19623;SDS011;9959;49.798;9.928;2022-12-07T02:30:11;28.63;;;10.60;;
19623;SDS011;9959;49.798;9.928;2022-12-07T02:32:43;25.80;;;11.52;;
19623;SDS011;9959;49.798;9.928;2022-12-07T02:35:17;30.02;;;10.85;;
19623;SDS011;9959;49.798;9.928;2022-12-07T02:37:49;27.10;;;12.00;;
19623;SDS011;9959;49.798;9.928;2022-12-07T02:40:24;24.90;;;10.65;;
19623;SDS011;9959;49.798;9.928;2022-12-07T02:42:58;24.10;;;11.02;;
19623;SDS011;9959;49.798;9.928;2022-12-07T02:45:31;28.35;;;11.05;;
19623;SDS011;9959;49.798;9.928;2022-12-07T02:48:02;26.52;;;11.57;;
19623;SDS011;9959;49.798;9.928;2022-12-07T02:50:32;23.63;;;10.82;;
19623;SDS011;9959;49.798;9.928;2022-12-07T02:53:00;28.23;;;11.30;;
19623;SDS011;9959;49.798;9.928;2022-12-07T02:55:29;28.75;;;11.20;;
19623;SDS011;9959;49.798;9.928;2022-12-07T03:00:57;25.98;;;10.65;;
19623;SDS011;9959;49.798;9.928;2022-12-07T03:03:33;27.63;;;10.30;;
19623;SDS011;9959;49.798;9.928;2022-12-07T03:06:07;22.30;;;10.13;;
19623;SDS011;9959;49.798;9.928;2022-12-07T03:08:44;25.65;;;11.57;;
19623;SDS011;9959;49.798;9.928;2022-12-07T03:11:21;24.02;;;11.43;;
19623;SDS011;9959;49.798;9.928;2022-12-07T03:13:54;27.23;;;10.93;;
19623;SDS011;9959;49.798;9.928;2022-12-07T03:16:33;28.08;;;12.32;;
19623;SDS011;9959;49.798;9.928;2022-12-07T03:19:03;26.23;;;11.93;;
19623;SDS011;9959;49.798;9.928;2022-12-07T03:21:36;25.25;;;10.60;;
19623;SDS011;9959;49.798;9.928;2022-12-07T03:24:08;28.00;;;12.25;;
19623;SDS011;9959;49.798;9.928;2022-12-07T03:26:42;26.42;;;11.05;;
19623;SDS011;9959;49.798;9.928;2022-12-07T03:29:17;32.72;;;11.80;;
19623;SDS011;9959;49.798;9.928;2022-12-07T03:31:52;26.92;;;11.30;;
19623;SDS011;9959;49.798;9.928;2022-12-07T03:34:24;27.50;;;11.85;;
19623;SDS011;9959;49.798;9.928;2022-12-07T03:36:57;25.30;;;11.32;;
19623;SDS011;9959;49.798;9.928;2022-12-07T03:39:29;25.15;;;10.85;;
19623;SDS011;9959;49.798;9.928;2022-12-07T03:42:01;27.58;;;11.55;;
19623;SDS011;9959;49.798;9.928;2022-12-07T03:44:33;24.08;;;10.38;;
19623;SDS011;9959;49.798;9.928;2022-12-07T03:47:04;29.83;;;11.45;;
19623;SDS011;9959;49.798;9.928;2022-12-07T03:49:40;30.40;;;11.80;;
19623;SDS011;9959;49.798;9.928;2022-12-07T03:52:12;28.60;;;11.35;;
19623;SDS011;9959;49.798;9.928;2022-12-07T03:54:47;26.90;;;11.90;;
19623;SDS011;9959;49.798;9.928;2022-12-07T03:57:19;28.00;;;12.13;;
19623;SDS011;9959;49.798;9.928;2022-12-07T03:59:49;29.67;;;11.80;;
19623;SDS011;9959;49.798;9.928;2022-12-07T04:02:20;25.65;;;11.52;;
19623;SDS011;9959;49.798;9.928;2022-12-07T04:04:49;30.42;;;11.68;;
19623;SDS011;9959;49.798;9.928;2022-12-07T04:07:17;25.50;;;11.30;;
19623;SDS011;9959;49.798;9.928;2022-12-07T04:09:45;26.15;;;11.30;;
19623;SDS011;9959;49.798;9.928;2022-12-07T04:12:13;26.48;;;10.88;;
19623;SDS011;9959;49.798;9.928;2022-12-07T04:14:41;27.55;;;12.60;;
19623;SDS011;9959;49.798;9.928;2022-12-07T04:17:09;25.02;;;9.90;;
19623;SDS011;9959;49.798;9.928;2022-12-07T04:19:38;26.85;;;10.95;;
19623;SDS011;9959;49.798;9.928;2022-12-07T04:22:06;27.38;;;9.13;;
19623;SDS011;9959;49.798;9.928;2022-12-07T04:24:35;24.05;;;10.15;;
19623;SDS011;9959;49.798;9.928;2022-12-07T04:27:03;26.17;;;10.68;;
19623;SDS011;9959;49.798;9.928;2022-12-07T04:29:31;23.73;;;10.57;;
19623;SDS011;9959;49.798;9.928;2022-12-07T04:31:58;25.40;;;10.10;;
19623;SDS011;9959;49.798;9.928;2022-12-07T04:34:26;28.55;;;11.75;;
19623;SDS011;9959;49.798;9.928;2022-12-07T04:36:56;26.30;;;11.32;;
19623;SDS011;9959;49.798;9.928;2022-12-07T04:39:25;25.35;;;10.65;;
19623;SDS011;9959;49.798;9.928;2022-12-07T04:41:54;24.00;;;10.50;;
19623;SDS011;9959;49.798;9.928;2022-12-07T04:44:24;24.63;;;10.68;;
19623;SDS011;9959;49.798;9.928;2022-12-07T04:46:53;25.20;;;10.85;;
19623;SDS011;9959;49.798;9.928;2022-12-07T04:49:21;27.08;;;10.32;;
19623;SDS011;9959;49.798;9.928;2022-12-07T04:51:50;19.92;;;9.25;;
19623;SDS011;9959;49.798;9.928;2022-12-07T04:54:20;25.80;;;11.57;;
19623;SDS011;9959;49.798;9.928;2022-12-07T04:56:48;22.58;;;9.85;;
19623;SDS011;9959;49.798;9.928;2022-12-07T04:59:16;23.48;;;10.02;;
19623;SDS011;9959;49.798;9.928;2022-12-07T05:01:44;23.88;;;10.32;;
19623;SDS011;9959;49.798;9.928;2022-12-07T05:04:12;26.85;;;10.32;;
19623;SDS011;9959;49.798;9.928;2022-12-07T05:06:42;23.52;;;10.27;;
19623;SDS011;9959;49.798;9.928;2022-12-07T05:09:10;22.38;;;9.65;;
19623;SDS011;9959;49.798;9.928;2022-12-07T05:11:39;25.05;;;9.75;;
19623;SDS011;9959;49.798;9.928;2022-12-07T05:14:08;24.00;;;10.45;;
19623;SDS011;9959;49.798;9.928;2022-12-07T05:16:38;18.60;;;7.47;;
19623;SDS011;9959;49.798;9.928;2022-12-07T05:19:07;20.20;;;9.23;;
19623;SDS011;9959;49.798;9.928;2022-12-07T05:21:36;19.25;;;9.02;;
19623;SDS011;9959;49.798;9.928;2022-12-07T05:24:05;17.13;;;8.50;;
19623;SDS011;9959;49.798;9.928;2022-12-07T05:26:34;20.88;;;9.63;;
19623;SDS011;9959;49.798;9.928;2022-12-07T05:29:03;23.52;;;9.80;;
19623;SDS011;9959;49.798;9.928;2022-12-07T05:31:31;21.15;;;9.43;;
19623;SDS011;9959;49.798;9.928;2022-12-07T05:34:00;19.80;;;8.43;;
19623;SDS011;9959;49.798;9.928;2022-12-07T05:36:28;22.05;;;9.43;;
19623;SDS011;9959;49.798;9.928;2022-12-07T05:38:58;17.67;;;8.40;;
19623;SDS011;9959;49.798;9.928;2022-12-07T05:41:26;21.75;;;9.27;;
19623;SDS011;9959;49.798;9.928;2022-12-07T05:44:13;23.73;;;9.55;;
19623;SDS011;9959;49.798;9.928;2022-12-07T05:46:41;23.20;;;9.32;;
19623;SDS011;9959;49.798;9.928;2022-12-07T05:49:09;27.60;;;10.98;;
19623;SDS011;9959;49.798;9.928;2022-12-07T05:51:37;21.50;;;9.52;;
19623;SDS011;9959;49.798;9.928;2022-12-07T05:54:05;20.13;;;9.25;;
19623;SDS011;9959;49.798;9.928;2022-12-07T05:56:33;20.83;;;9.88;;
19623;SDS011;9959;49.798;9.928;2022-12-07T05:59:01;18.90;;;9.52;;
19623;SDS011;9959;49.798;9.928;2022-12-07T06:01:47;20.90;;;9.98;;
19623;SDS011;9959;49.798;9.928;2022-12-07T06:04:16;25.55;;;10.40;;
19623;SDS011;9959;49.798;9.928;2022-12-07T06:06:44;21.80;;;9.18;;
19623;SDS011;9959;49.798;9.928;2022-12-07T06:09:12;26.83;;;10.45;;
19623;SDS011;9959;49.798;9.928;2022-12-07T06:11:40;24.77;;;10.35;;
19623;SDS011;9959;49.798;9.928;2022-12-07T06:14:22;19.42;;;8.77;;
19623;SDS011;9959;49.798;9.928;2022-12-07T06:16:51;26.35;;;9.93;;
19623;SDS011;9959;49.798;9.928;2022-12-07T06:19:19;26.77;;;11.25;;
19623;SDS011;9959;49.798;9.928;2022-12-07T06:21:47;27.13;;;11.43;;
19623;SDS011;9959;49.798;9.928;2022-12-07T06:24:16;25.48;;;10.48;;
19623;SDS011;9959;49.798;9.928;2022-12-07T06:26:44;24.83;;;10.70;;
19623;SDS011;9959;49.798;9.928;2022-12-07T06:29:13;23.02;;;9.00;;
19623;SDS011;9959;49.798;9.928;2022-12-07T06:31:41;24.20;;;10.50;;
19623;SDS011;9959;49.798;9.928;2022-12-07T06:34:12;24.40;;;10.48;;
19623;SDS011;9959;49.798;9.928;2022-12-07T06:36:41;26.10;;;10.55;;
19623;SDS011;9959;49.798;9.928;2022-12-07T06:39:10;28.73;;;10.88;;
19623;SDS011;9959;49.798;9.928;2022-12-07T06:41:39;26.98;;;11.27;;
19623;SDS011;9959;49.798;9.928;2022-12-07T06:44:07;24.45;;;10.40;;
19623;SDS011;9959;49.798;9.928;2022-12-07T06:46:34;27.30;;;11.20;;
19623;SDS011;9959;49.798;9.928;2022-12-07T06:49:03;28.70;;;10.50;;
19623;SDS011;9959;49.798;9.928;2022-12-07T06:51:36;23.83;;;10.73;;
19623;SDS011;9959;49.798;9.928;2022-12-07T06:54:07;23.83;;;10.23;;
19623;SDS011;9959;49.798;9.928;2022-12-07T06:56:35;29.88;;;11.23;;
19623;SDS011;9959;49.798;9.928;2022-12-07T06:59:03;24.10;;;10.20;;
19623;SDS011;9959;49.798;9.928;2022-12-07T07:01:33;25.38;;;10.50;;
19623;SDS011;9959;49.798;9.928;2022-12-07T07:04:02;22.30;;;9.50;;
19623;SDS011;9959;49.798;9.928;2022-12-07T07:06:30;23.52;;;9.98;;
19623;SDS011;9959;49.798;9.928;2022-12-07T07:09:00;23.92;;;9.95;;
19623;SDS011;9959;49.798;9.928;2022-12-07T07:11:28;27.05;;;9.70;;
19623;SDS011;9959;49.798;9.928;2022-12-07T07:13:55;24.05;;;10.45;;
19623;SDS011;9959;49.798;9.928;2022-12-07T07:16:28;23.48;;;9.40;;
19623;SDS011;9959;49.798;9.928;2022-12-07T07:18:57;30.02;;;10.38;;
19623;SDS011;9959;49.798;9.928;2022-12-07T07:21:25;21.48;;;10.15;;
19623;SDS011;9959;49.798;9.928;2022-12-07T07:23:54;27.95;;;11.65;;
19623;SDS011;9959;49.798;9.928;2022-12-07T07:26:24;27.30;;;10.85;;
19623;SDS011;9959;49.798;9.928;2022-12-07T07:28:51;23.00;;;8.65;;
19623;SDS011;9959;49.798;9.928;2022-12-07T07:31:19;23.73;;;9.57;;
19623;SDS011;9959;49.798;9.928;2022-12-07T07:33:47;22.20;;;9.90;;
19623;SDS011;9959;49.798;9.928;2022-12-07T07:36:15;30.05;;;10.90;;
19623;SDS011;9959;49.798;9.928;2022-12-07T07:38:44;24.75;;;10.60;;
19623;SDS011;9959;49.798;9.928;2022-12-07T07:41:13;29.88;;;10.60;;
19623;SDS011;9959;49.798;9.928;2022-12-07T07:43:43;20.70;;;9.50;;
19623;SDS011;9959;49.798;9.928;2022-12-07T07:46:11;24.42;;;10.02;;
19623;SDS011;9959;49.798;9.928;2022-12-07T07:48:38;23.42;;;10.35;;
19623;SDS011;9959;49.798;9.928;2022-12-07T07:51:06;21.33;;;9.20;;
19623;SDS011;9959;49.798;9.928;2022-12-07T07:53:35;21.85;;;9.20;;
19623;SDS011;9959;49.798;9.928;2022-12-07T07:56:03;21.98;;;9.48;;
19623;SDS011;9959;49.798;9.928;2022-12-07T07:58:31;22.80;;;10.10;;
19623;SDS011;9959;49.798;9.928;2022-12-07T08:01:04;23.38;;;9.13;;
19623;SDS011;9959;49.798;9.928;2022-12-07T08:03:33;21.88;;;9.90;;
19623;SDS011;9959;49.798;9.928;2022-12-07T08:06:02;22.50;;;10.05;;
19623;SDS011;9959;49.798;9.928;2022-12-07T08:08:30;24.35;;;10.80;;
19623;SDS011;9959;49.798;9.928;2022-12-07T08:10:58;21.08;;;9.15;;
19623;SDS011;9959;49.798;9.928;2022-12-07T08:13:27;19.80;;;9.88;;
19623;SDS011;9959;49.798;9.928;2022-12-07T08:15:56;18.63;;;9.15;;
19623;SDS011;9959;49.798;9.928;2022-12-07T08:18:26;21.08;;;9.82;;
19623;SDS011;9959;49.798;9.928;2022-12-07T08:20:58;21.13;;;9.60;;
19623;SDS011;9959;49.798;9.928;2022-12-07T08:23:27;23.67;;;10.13;;
19623;SDS011;9959;49.798;9.928;2022-12-07T08:26:05;26.17;;;10.05;;
19623;SDS011;9959;49.798;9.928;2022-12-07T08:28:35;25.45;;;10.50;;
19623;SDS011;9959;49.798;9.928;2022-12-07T08:31:04;20.35;;;8.60;;
19623;SDS011;9959;49.798;9.928;2022-12-07T08:33:34;20.13;;;8.68;;
19623;SDS011;9959;49.798;9.928;2022-12-07T08:36:03;19.35;;;8.65;;
19623;SDS011;9959;49.798;9.928;2022-12-07T08:38:33;20.30;;;9.63;;
19623;SDS011;9959;49.798;9.928;2022-12-07T08:41:02;22.27;;;9.32;;
19623;SDS011;9959;49.798;9.928;2022-12-07T08:43:31;22.00;;;10.30;;
19623;SDS011;9959;49.798;9.928;2022-12-07T08:46:03;23.83;;;9.55;;
19623;SDS011;9959;49.798;9.928;2022-12-07T08:48:36;19.05;;;8.30;;
19623;SDS011;9959;49.798;9.928;2022-12-07T08:51:07;18.60;;;8.57;;
19623;SDS011;9959;49.798;9.928;2022-12-07T08:53:35;21.13;;;9.77;;
19623;SDS011;9959;49.798;9.928;2022-12-07T08:56:05;21.90;;;9.60;;
19623;SDS011;9959;49.798;9.928;2022-12-07T08:58:34;22.08;;;9.75;;
19623;SDS011;9959;49.798;9.928;2022-12-07T09:01:04;25.05;;;10.65;;
19623;SDS011;9959;49.798;9.928;2022-12-07T09:03:32;22.15;;;10.32;;
19623;SDS011;9959;49.798;9.928;2022-12-07T09:06:02;26.02;;;9.88;;
19623;SDS011;9959;49.798;9.928;2022-12-07T09:08:31;22.63;;;9.98;;
19623;SDS011;9959;49.798;9.928;2022-12-07T09:11:02;21.40;;;9.60;;
19623;SDS011;9959;49.798;9.928;2022-12-07T09:13:30;16.98;;;8.70;;
19623;SDS011;9959;49.798;9.928;2022-12-07T09:15:57;24.67;;;11.18;;
19623;SDS011;9959;49.798;9.928;2022-12-07T09:18:25;24.85;;;11.35;;
19623;SDS011;9959;49.798;9.928;2022-12-07T09:20:53;20.02;;;10.07;;
19623;SDS011;9959;49.798;9.928;2022-12-07T09:23:23;21.60;;;9.77;;
19623;SDS011;9959;49.798;9.928;2022-12-07T09:25:51;25.42;;;10.18;;
19623;SDS011;9959;49.798;9.928;2022-12-07T09:28:19;22.10;;;10.50;;
19623;SDS011;9959;49.798;9.928;2022-12-07T09:30:47;22.67;;;10.43;;
19623;SDS011;9959;49.798;9.928;2022-12-07T09:33:36;20.52;;;10.18;;
19623;SDS011;9959;49.798;9.928;2022-12-07T09:36:04;22.73;;;10.20;;
19623;SDS011;9959;49.798;9.928;2022-12-07T09:38:33;20.45;;;10.25;;
19623;SDS011;9959;49.798;9.928;2022-12-07T09:41:03;23.15;;;10.43;;
19623;SDS011;9959;49.798;9.928;2022-12-07T09:43:33;21.08;;;9.55;;
19623;SDS011;9959;49.798;9.928;2022-12-07T09:46:04;20.50;;;9.50;;
19623;SDS011;9959;49.798;9.928;2022-12-07T09:48:33;21.77;;;9.40;;
19623;SDS011;9959;49.798;9.928;2022-12-07T09:51:10;18.90;;;9.63;;
19623;SDS011;9959;49.798;9.928;2022-12-07T09:53:49;21.98;;;9.20;;
19623;SDS011;9959;49.798;9.928;2022-12-07T09:56:18;19.83;;;8.65;;
19623;SDS011;9959;49.798;9.928;2022-12-07T09:58:47;18.40;;;7.90;;
19623;SDS011;9959;49.798;9.928;2022-12-07T10:01:17;16.75;;;8.98;;
19623;SDS011;9959;49.798;9.928;2022-12-07T10:03:48;19.77;;;9.00;;
19623;SDS011;9959;49.798;9.928;2022-12-07T10:06:19;18.95;;;8.85;;
19623;SDS011;9959;49.798;9.928;2022-12-07T10:08:49;17.40;;;8.63;;
19623;SDS011;9959;49.798;9.928;2022-12-07T10:11:17;18.77;;;9.48;;
19623;SDS011;9959;49.798;9.928;2022-12-07T10:13:46;20.88;;;9.57;;
19623;SDS011;9959;49.798;9.928;2022-12-07T10:16:31;22.42;;;10.70;;
19623;SDS011;9959;49.798;9.928;2022-12-07T10:19:18;20.70;;;10.55;;
19623;SDS011;9959;49.798;9.928;2022-12-07T10:21:59;20.00;;;9.20;;
19623;SDS011;9959;49.798;9.928;2022-12-07T10:24:30;17.85;;;8.85;;
19623;SDS011;9959;49.798;9.928;2022-12-07T10:26:59;19.48;;;8.75;;
19623;SDS011;9959;49.798;9.928;2022-12-07T10:29:28;16.30;;;8.57;;
19623;SDS011;9959;49.798;9.928;2022-12-07T10:31:59;20.15;;;9.80;;
19623;SDS011;9959;49.798;9.928;2022-12-07T10:34:28;20.05;;;9.13;;
19623;SDS011;9959;49.798;9.928;2022-12-07T10:37:14;15.30;;;7.47;;
19623;SDS011;9959;49.798;9.928;2022-12-07T10:39:46;18.08;;;8.88;;
19623;SDS011;9959;49.798;9.928;2022-12-07T10:42:16;16.63;;;7.85;;
19623;SDS011;9959;49.798;9.928;2022-12-07T10:44:45;14.10;;;7.88;;
19623;SDS011;9959;49.798;9.928;2022-12-07T10:47:18;17.75;;;8.80;;
19623;SDS011;9959;49.798;9.928;2022-12-07T10:53:12;14.25;;;6.80;;
19623;SDS011;9959;49.798;9.928;2022-12-07T10:55:59;16.30;;;6.90;;
19623;SDS011;9959;49.798;9.928;2022-12-07T10:58:44;14.55;;;6.57;;
19623;SDS011;9959;49.798;9.928;2022-12-07T11:01:25;15.13;;;7.85;;
19623;SDS011;9959;49.798;9.928;2022-12-07T11:04:10;15.23;;;6.28;;
19623;SDS011;9959;49.798;9.928;2022-12-07T11:06:47;14.23;;;6.75;;
19623;SDS011;9959;49.798;9.928;2022-12-07T11:09:37;13.00;;;7.30;;
19623;SDS011;9959;49.798;9.928;2022-12-07T11:12:39;17.30;;;8.15;;
19623;SDS011;9959;49.798;9.928;2022-12-07T11:15:17;15.02;;;7.63;;
19623;SDS011;9959;49.798;9.928;2022-12-07T11:17:53;16.98;;;7.97;;
19623;SDS011;9959;49.798;9.928;2022-12-07T11:20:30;16.05;;;7.35;;
19623;SDS011;9959;49.798;9.928;2022-12-07T11:23:11;15.70;;;8.23;;
19623;SDS011;9959;49.798;9.928;2022-12-07T11:25:47;15.48;;;6.57;;
19623;SDS011;9959;49.798;9.928;2022-12-07T11:28:27;16.08;;;7.22;;
19623;SDS011;9959;49.798;9.928;2022-12-07T11:31:08;14.48;;;7.38;;
19623;SDS011;9959;49.798;9.928;2022-12-07T11:33:43;13.43;;;6.82;;
19623;SDS011;9959;49.798;9.928;2022-12-07T11:36:22;15.15;;;7.22;;
19623;SDS011;9959;49.798;9.928;2022-12-07T11:39:07;14.43;;;6.72;;
19623;SDS011;9959;49.798;9.928;2022-12-07T11:41:43;12.82;;;6.78;;
19623;SDS011;9959;49.798;9.928;2022-12-07T11:44:20;12.02;;;6.70;;
19623;SDS011;9959;49.798;9.928;2022-12-07T11:46:56;12.68;;;6.75;;
19623;SDS011;9959;49.798;9.928;2022-12-07T11:49:33;12.70;;;6.10;;
19623;SDS011;9959;49.798;9.928;2022-12-07T11:52:10;13.68;;;6.80;;
19623;SDS011;9959;49.798;9.928;2022-12-07T11:54:45;12.57;;;6.15;;
19623;SDS011;9959;49.798;9.928;2022-12-07T11:57:17;13.38;;;6.88;;
19623;SDS011;9959;49.798;9.928;2022-12-07T11:59:53;13.55;;;7.00;;
19623;SDS011;9959;49.798;9.928;2022-12-07T12:02:28;15.80;;;7.32;;
19623;SDS011;9959;49.798;9.928;2022-12-07T12:05:05;12.25;;;6.22;;
19623;SDS011;9959;49.798;9.928;2022-12-07T12:07:42;15.02;;;6.93;;
19623;SDS011;9959;49.798;9.928;2022-12-07T12:10:36;14.35;;;6.80;;
19623;SDS011;9959;49.798;9.928;2022-12-07T12:13:14;16.45;;;7.38;;
19623;SDS011;9959;49.798;9.928;2022-12-07T12:16:25;15.27;;;7.78;;
19623;SDS011;9959;49.798;9.928;2022-12-07T12:19:23;16.70;;;7.63;;
19623;SDS011;9959;49.798;9.928;2022-12-07T12:21:59;15.52;;;6.43;;
19623;SDS011;9959;49.798;9.928;2022-12-07T12:24:37;10.70;;;6.25;;
19623;SDS011;9959;49.798;9.928;2022-12-07T12:27:07;12.63;;;6.57;;
19623;SDS011;9959;49.798;9.928;2022-12-07T12:29:38;12.45;;;6.40;;
19623;SDS011;9959;49.798;9.928;2022-12-07T12:32:18;13.23;;;6.40;;
19623;SDS011;9959;49.798;9.928;2022-12-07T12:35:00;12.15;;;5.20;;
19623;SDS011;9959;49.798;9.928;2022-12-07T12:37:43;12.70;;;5.68;;
19623;SDS011;9959;49.798;9.928;2022-12-07T12:58:31;13.10;;;6.80;;
19623;SDS011;9959;49.798;9.928;2022-12-07T13:04:25;11.20;;;5.70;;
19623;SDS011;9959;49.798;9.928;2022-12-07T13:06:59;11.98;;;5.88;;
19623;SDS011;9959;49.798;9.928;2022-12-07T13:09:28;10.27;;;5.57;;
19623;SDS011;9959;49.798;9.928;2022-12-07T13:12:00;18.33;;;6.78;;
19623;SDS011;9959;49.798;9.928;2022-12-07T13:14:54;13.40;;;7.18;;
19623;SDS011;9959;49.798;9.928;2022-12-07T13:20:44;17.00;;;7.07;;
19623;SDS011;9959;49.798;9.928;2022-12-07T13:23:19;14.65;;;6.53;;
19623;SDS011;9959;49.798;9.928;2022-12-07T13:26:09;13.38;;;6.28;;
19623;SDS011;9959;49.798;9.928;2022-12-07T13:28:44;16.10;;;7.30;;
19623;SDS011;9959;49.798;9.928;2022-12-07T13:31:26;12.02;;;6.63;;
19623;SDS011;9959;49.798;9.928;2022-12-07T13:33:59;13.90;;;6.93;;
19623;SDS011;9959;49.798;9.928;2022-12-07T13:36:29;14.02;;;5.70;;
19623;SDS011;9959;49.798;9.928;2022-12-07T13:39:16;16.58;;;7.50;;
19623;SDS011;9959;49.798;9.928;2022-12-07T13:41:49;13.07;;;6.55;;
19623;SDS011;9959;49.798;9.928;2022-12-07T13:44:18;16.00;;;7.30;;
19623;SDS011;9959;49.798;9.928;2022-12-07T13:46:49;10.02;;;5.57;;
19623;SDS011;9959;49.798;9.928;2022-12-07T13:49:22;16.52;;;6.63;;
19623;SDS011;9959;49.798;9.928;2022-12-07T13:51:52;10.20;;;5.50;;
19623;SDS011;9959;49.798;9.928;2022-12-07T13:54:22;7.82;;;5.30;;
19623;SDS011;9959;49.798;9.928;2022-12-07T13:56:50;12.40;;;5.50;;
19623;SDS011;9959;49.798;9.928;2022-12-07T13:59:20;10.95;;;5.10;;
19623;SDS011;9959;49.798;9.928;2022-12-07T14:01:50;13.27;;;5.68;;
19623;SDS011;9959;49.798;9.928;2022-12-07T14:04:27;12.00;;;5.22;;
19623;SDS011;9959;49.798;9.928;2022-12-07T14:06:58;10.10;;;5.47;;
19623;SDS011;9959;49.798;9.928;2022-12-07T14:09:29;11.98;;;5.43;;
19623;SDS011;9959;49.798;9.928;2022-12-07T14:11:57;12.27;;;5.00;;
19623;SDS011;9959;49.798;9.928;2022-12-07T14:14:26;11.75;;;5.38;;
19623;SDS011;9959;49.798;9.928;2022-12-07T14:17:08;13.32;;;5.90;;
19623;SDS011;9959;49.798;9.928;2022-12-07T14:19:41;16.42;;;5.60;;
19623;SDS011;9959;49.798;9.928;2022-12-07T14:22:30;11.45;;;5.05;;
19623;SDS011;9959;49.798;9.928;2022-12-07T14:25:11;9.60;;;4.70;;
19623;SDS011;9959;49.798;9.928;2022-12-07T14:27:50;11.90;;;5.72;;
19623;SDS011;9959;49.798;9.928;2022-12-07T14:30:22;11.23;;;5.35;;
19623;SDS011;9959;49.798;9.928;2022-12-07T14:32:52;11.73;;;5.40;;
19623;SDS011;9959;49.798;9.928;2022-12-07T14:35:22;18.63;;;6.07;;
19623;SDS011;9959;49.798;9.928;2022-12-07T14:37:50;13.98;;;5.55;;
19623;SDS011;9959;49.798;9.928;2022-12-07T14:40:20;14.30;;;5.63;;
19623;SDS011;9959;49.798;9.928;2022-12-07T14:42:51;11.35;;;5.85;;
19623;SDS011;9959;49.798;9.928;2022-12-07T14:45:22;11.38;;;6.57;;
19623;SDS011;9959;49.798;9.928;2022-12-07T14:47:50;12.30;;;6.40;;
19623;SDS011;9959;49.798;9.928;2022-12-07T14:50:40;14.35;;;6.72;;
19623;SDS011;9959;49.798;9.928;2022-12-07T14:53:33;17.75;;;6.65;;
19623;SDS011;9959;49.798;9.928;2022-12-07T14:56:06;12.88;;;6.30;;
19623;SDS011;9959;49.798;9.928;2022-12-07T14:58:34;15.75;;;6.85;;
19623;SDS011;9959;49.798;9.928;2022-12-07T15:01:02;15.55;;;7.15;;
19623;SDS011;9959;49.798;9.928;2022-12-07T15:03:30;14.52;;;7.45;;
19623;SDS011;9959;49.798;9.928;2022-12-07T15:06:00;17.80;;;7.32;;
19623;SDS011;9959;49.798;9.928;2022-12-07T15:08:29;18.83;;;7.47;;
19623;SDS011;9959;49.798;9.928;2022-12-07T15:10:56;21.38;;;6.97;;
19623;SDS011;9959;49.798;9.928;2022-12-07T15:13:26;17.38;;;7.28;;
19623;SDS011;9959;49.798;9.928;2022-12-07T15:16:12;17.45;;;8.40;;
19623;SDS011;9959;49.798;9.928;2022-12-07T15:18:43;15.00;;;7.88;;
19623;SDS011;9959;49.798;9.928;2022-12-07T15:21:31;19.13;;;8.30;;
19623;SDS011;9959;49.798;9.928;2022-12-07T15:23:59;16.80;;;8.40;;
19623;SDS011;9959;49.798;9.928;2022-12-07T15:26:27;16.80;;;7.95;;
19623;SDS011;9959;49.798;9.928;2022-12-07T15:28:56;20.13;;;9.30;;
19623;SDS011;9959;49.798;9.928;2022-12-07T15:31:24;14.05;;;7.35;;
19623;SDS011;9959;49.798;9.928;2022-12-07T15:34:12;17.98;;;7.93;;
19623;SDS011;9959;49.798;9.928;2022-12-07T15:36:40;15.63;;;8.02;;
19623;SDS011;9959;49.798;9.928;2022-12-07T15:39:08;20.25;;;8.55;;
19623;SDS011;9959;49.798;9.928;2022-12-07T15:41:40;19.05;;;8.80;;
19623;SDS011;9959;49.798;9.928;2022-12-07T15:44:10;19.27;;;8.48;;